sensor_id;sensor_type;location;lat;lon;timestamp;P1;durP1;ratioP1;P2;durP2;ratioP2
74269;SDS011;62754;48.252;11.654;2023-05-18T00:02:04;7.43;;;3.50;;
74269;SDS011;62754;48.252;11.654;2023-05-18T00:04:33;6.30;;;3.65;;
74269;SDS011;62754;48.252;11.654;2023-05-18T00:07:03;7.50;;;3.95;;
74269;SDS011;62754;48.252;11.654;2023-05-18T00:09:33;6.15;;;3.20;;
74269;SDS011;62754;48.252;11.654;2023-05-18T00:12:02;6.85;;;3.80;;
74269;SDS011;62754;48.252;11.654;2023-05-18T00:14:29;7.00;;;3.85;;
74269;SDS011;62754;48.252;11.654;2023-05-18T00:16:55;8.57;;;3.58;;
74269;SDS011;62754;48.252;11.654;2023-05-18T00:19:21;9.10;;;3.90;;
74269;SDS011;62754;48.252;11.654;2023-05-18T00:21:51;7.13;;;3.55;;
74269;SDS011;62754;48.252;11.654;2023-05-18T00:24:19;7.32;;;3.22;;
74269;SDS011;62754;48.252;11.654;2023-05-18T00:26:45;8.07;;;3.95;;
74269;SDS011;62754;48.252;11.654;2023-05-18T00:29:12;9.38;;;3.85;;
74269;SDS011;62754;48.252;11.654;2023-05-18T00:31:38;7.78;;;3.88;;
74269;SDS011;62754;48.252;11.654;2023-05-18T00:34:04;9.13;;;3.90;;
74269;SDS011;62754;48.252;11.654;2023-05-18T00:36:30;7.55;;;4.05;;
74269;SDS011;62754;48.252;11.654;2023-05-18T00:38:56;7.47;;;3.50;;
74269;SDS011;62754;48.252;11.654;2023-05-18T00:41:23;9.15;;;4.03;;
74269;SDS011;62754;48.252;11.654;2023-05-18T00:43:49;7.50;;;3.80;;
74269;SDS011;62754;48.252;11.654;2023-05-18T00:46:15;7.50;;;4.20;;
74269;SDS011;62754;48.252;11.654;2023-05-18T00:48:43;7.97;;;4.10;;
74269;SDS011;62754;48.252;11.654;2023-05-18T00:51:12;7.38;;;4.35;;
74269;SDS011;62754;48.252;11.654;2023-05-18T00:53:43;7.03;;;3.78;;
74269;SDS011;62754;48.252;11.654;2023-05-18T00:56:09;7.38;;;3.60;;
74269;SDS011;62754;48.252;11.654;2023-05-18T00:58:35;7.50;;;3.95;;
74269;SDS011;62754;48.252;11.654;2023-05-18T01:01:03;8.45;;;4.00;;
74269;SDS011;62754;48.252;11.654;2023-05-18T01:03:29;7.85;;;3.70;;
74269;SDS011;62754;48.252;11.654;2023-05-18T01:06:00;8.93;;;4.05;;
74269;SDS011;62754;48.252;11.654;2023-05-18T01:08:28;10.48;;;4.07;;
74269;SDS011;62754;48.252;11.654;2023-05-18T01:11:02;7.40;;;4.13;;
74269;SDS011;62754;48.252;11.654;2023-05-18T01:13:36;9.23;;;4.00;;
74269;SDS011;62754;48.252;11.654;2023-05-18T01:16:11;8.02;;;3.55;;
74269;SDS011;62754;48.252;11.654;2023-05-18T01:18:55;9.45;;;4.35;;
74269;SDS011;62754;48.252;11.654;2023-05-18T01:24:25;6.90;;;4.25;;
74269;SDS011;62754;48.252;11.654;2023-05-18T01:27:02;7.25;;;3.78;;
74269;SDS011;62754;48.252;11.654;2023-05-18T01:29:35;8.18;;;4.00;;
74269;SDS011;62754;48.252;11.654;2023-05-18T01:32:05;10.90;;;4.28;;
74269;SDS011;62754;48.252;11.654;2023-05-18T01:34:31;8.23;;;3.92;;
74269;SDS011;62754;48.252;11.654;2023-05-18T01:36:57;10.05;;;3.90;;
74269;SDS011;62754;48.252;11.654;2023-05-18T01:39:23;7.50;;;3.60;;
74269;SDS011;62754;48.252;11.654;2023-05-18T01:41:53;9.98;;;4.03;;
74269;SDS011;62754;48.252;11.654;2023-05-18T01:44:25;7.57;;;3.83;;
74269;SDS011;62754;48.252;11.654;2023-05-18T01:49:30;7.45;;;3.63;;
74269;SDS011;62754;48.252;11.654;2023-05-18T01:52:06;8.05;;;3.90;;
74269;SDS011;62754;48.252;11.654;2023-05-18T01:54:36;8.63;;;3.85;;
74269;SDS011;62754;48.252;11.654;2023-05-18T01:57:05;7.72;;;3.75;;
74269;SDS011;62754;48.252;11.654;2023-05-18T02:02:04;6.25;;;3.30;;
74269;SDS011;62754;48.252;11.654;2023-05-18T02:04:32;7.80;;;3.80;;
74269;SDS011;62754;48.252;11.654;2023-05-18T02:07:00;7.47;;;3.28;;
74269;SDS011;62754;48.252;11.654;2023-05-18T02:09:31;7.25;;;3.25;;
74269;SDS011;62754;48.252;11.654;2023-05-18T02:11:56;8.15;;;3.35;;
74269;SDS011;62754;48.252;11.654;2023-05-18T02:14:22;7.45;;;3.70;;
74269;SDS011;62754;48.252;11.654;2023-05-18T02:16:50;8.23;;;3.78;;
74269;SDS011;62754;48.252;11.654;2023-05-18T02:19:16;8.15;;;4.18;;
74269;SDS011;62754;48.252;11.654;2023-05-18T02:21:46;9.00;;;3.70;;
74269;SDS011;62754;48.252;11.654;2023-05-18T02:24:14;7.63;;;3.92;;
74269;SDS011;62754;48.252;11.654;2023-05-18T02:26:40;8.27;;;3.70;;
74269;SDS011;62754;48.252;11.654;2023-05-18T02:29:06;8.43;;;3.65;;
74269;SDS011;62754;48.252;11.654;2023-05-18T02:31:31;7.22;;;3.85;;
74269;SDS011;62754;48.252;11.654;2023-05-18T02:34:02;9.27;;;4.32;;
74269;SDS011;62754;48.252;11.654;2023-05-18T02:36:28;8.98;;;3.47;;
74269;SDS011;62754;48.252;11.654;2023-05-18T02:38:57;9.13;;;3.33;;
74269;SDS011;62754;48.252;11.654;2023-05-18T02:41:25;10.23;;;4.35;;
74269;SDS011;62754;48.252;11.654;2023-05-18T02:43:50;8.80;;;4.20;;
74269;SDS011;62754;48.252;11.654;2023-05-18T02:46:16;8.75;;;4.35;;
74269;SDS011;62754;48.252;11.654;2023-05-18T02:48:44;7.70;;;3.88;;
74269;SDS011;62754;48.252;11.654;2023-05-18T02:51:10;6.18;;;3.50;;
74269;SDS011;62754;48.252;11.654;2023-05-18T02:53:39;8.77;;;3.75;;
74269;SDS011;62754;48.252;11.654;2023-05-18T02:56:05;9.38;;;4.50;;
74269;SDS011;62754;48.252;11.654;2023-05-18T02:58:34;7.30;;;3.65;;
74269;SDS011;62754;48.252;11.654;2023-05-18T03:01:00;10.40;;;3.88;;
74269;SDS011;62754;48.252;11.654;2023-05-18T03:03:29;11.85;;;4.60;;
74269;SDS011;62754;48.252;11.654;2023-05-18T03:05:59;8.02;;;4.07;;
74269;SDS011;62754;48.252;11.654;2023-05-18T03:08:28;8.32;;;4.03;;
74269;SDS011;62754;48.252;11.654;2023-05-18T03:10:56;9.50;;;4.63;;
74269;SDS011;62754;48.252;11.654;2023-05-18T03:13:25;8.40;;;4.13;;
74269;SDS011;62754;48.252;11.654;2023-05-18T03:15:50;8.15;;;4.18;;
74269;SDS011;62754;48.252;11.654;2023-05-18T03:18:17;10.90;;;4.40;;
74269;SDS011;62754;48.252;11.654;2023-05-18T03:20:45;10.50;;;4.13;;
74269;SDS011;62754;48.252;11.654;2023-05-18T03:23:11;6.45;;;4.32;;
74269;SDS011;62754;48.252;11.654;2023-05-18T03:25:37;8.43;;;4.55;;
74269;SDS011;62754;48.252;11.654;2023-05-18T03:28:05;10.30;;;4.25;;
74269;SDS011;62754;48.252;11.654;2023-05-18T03:30:31;8.10;;;4.30;;
74269;SDS011;62754;48.252;11.654;2023-05-18T03:32:57;8.75;;;4.90;;
74269;SDS011;62754;48.252;11.654;2023-05-18T03:35:23;10.15;;;4.78;;
74269;SDS011;62754;48.252;11.654;2023-05-18T03:37:53;10.50;;;4.78;;
74269;SDS011;62754;48.252;11.654;2023-05-18T03:40:20;8.95;;;4.68;;
74269;SDS011;62754;48.252;11.654;2023-05-18T03:42:45;10.07;;;4.55;;
74269;SDS011;62754;48.252;11.654;2023-05-18T03:45:16;9.43;;;4.65;;
74269;SDS011;62754;48.252;11.654;2023-05-18T03:47:44;6.57;;;4.22;;
74269;SDS011;62754;48.252;11.654;2023-05-18T03:50:10;9.05;;;4.40;;
74269;SDS011;62754;48.252;11.654;2023-05-18T03:52:38;7.82;;;4.78;;
74269;SDS011;62754;48.252;11.654;2023-05-18T03:55:07;9.82;;;4.35;;
74269;SDS011;62754;48.252;11.654;2023-05-18T03:57:33;8.90;;;4.75;;
74269;SDS011;62754;48.252;11.654;2023-05-18T03:59:59;8.82;;;4.78;;
74269;SDS011;62754;48.252;11.654;2023-05-18T04:02:24;10.98;;;5.30;;
74269;SDS011;62754;48.252;11.654;2023-05-18T04:04:53;9.75;;;5.15;;
74269;SDS011;62754;48.252;11.654;2023-05-18T04:07:24;7.30;;;4.50;;
74269;SDS011;62754;48.252;11.654;2023-05-18T04:09:50;11.10;;;5.30;;
74269;SDS011;62754;48.252;11.654;2023-05-18T04:12:17;10.68;;;4.93;;
74269;SDS011;62754;48.252;11.654;2023-05-18T04:14:43;12.45;;;5.10;;
74269;SDS011;62754;48.252;11.654;2023-05-18T04:17:09;7.85;;;4.82;;
74269;SDS011;62754;48.252;11.654;2023-05-18T04:19:53;8.95;;;4.45;;
74269;SDS011;62754;48.252;11.654;2023-05-18T04:22:18;9.30;;;4.93;;
74269;SDS011;62754;48.252;11.654;2023-05-18T04:24:44;11.18;;;4.90;;
74269;SDS011;62754;48.252;11.654;2023-05-18T04:27:10;9.00;;;4.90;;
74269;SDS011;62754;48.252;11.654;2023-05-18T04:29:38;9.25;;;5.45;;
74269;SDS011;62754;48.252;11.654;2023-05-18T04:32:06;8.23;;;5.15;;
74269;SDS011;62754;48.252;11.654;2023-05-18T04:34:33;10.43;;;5.93;;
74269;SDS011;62754;48.252;11.654;2023-05-18T04:36:59;10.38;;;5.07;;
74269;SDS011;62754;48.252;11.654;2023-05-18T04:39:28;12.45;;;6.22;;
74269;SDS011;62754;48.252;11.654;2023-05-18T04:41:56;8.85;;;5.05;;
74269;SDS011;62754;48.252;11.654;2023-05-18T04:44:27;10.15;;;5.40;;
74269;SDS011;62754;48.252;11.654;2023-05-18T04:46:53;8.45;;;5.15;;
74269;SDS011;62754;48.252;11.654;2023-05-18T04:49:20;8.88;;;5.30;;
74269;SDS011;62754;48.252;11.654;2023-05-18T04:51:49;9.68;;;4.68;;
74269;SDS011;62754;48.252;11.654;2023-05-18T04:54:15;12.05;;;5.45;;
74269;SDS011;62754;48.252;11.654;2023-05-18T04:56:41;8.70;;;5.28;;
74269;SDS011;62754;48.252;11.654;2023-05-18T04:59:07;9.32;;;5.30;;
74269;SDS011;62754;48.252;11.654;2023-05-18T05:01:36;8.55;;;4.68;;
74269;SDS011;62754;48.252;11.654;2023-05-18T05:04:04;10.18;;;5.05;;
74269;SDS011;62754;48.252;11.654;2023-05-18T05:06:30;11.10;;;5.68;;
74269;SDS011;62754;48.252;11.654;2023-05-18T05:08:55;9.20;;;5.15;;
74269;SDS011;62754;48.252;11.654;2023-05-18T05:11:24;8.18;;;5.05;;
74269;SDS011;62754;48.252;11.654;2023-05-18T05:13:54;12.85;;;4.90;;
74269;SDS011;62754;48.252;11.654;2023-05-18T05:16:27;10.70;;;5.63;;
74269;SDS011;62754;48.252;11.654;2023-05-18T05:18:53;10.48;;;5.18;;
74269;SDS011;62754;48.252;11.654;2023-05-18T05:21:21;9.57;;;5.53;;
74269;SDS011;62754;48.252;11.654;2023-05-18T05:23:47;8.20;;;4.70;;
74269;SDS011;62754;48.252;11.654;2023-05-18T05:26:15;11.07;;;5.88;;
74269;SDS011;62754;48.252;11.654;2023-05-18T05:28:43;8.30;;;4.93;;
74269;SDS011;62754;48.252;11.654;2023-05-18T05:31:09;10.35;;;4.72;;
74269;SDS011;62754;48.252;11.654;2023-05-18T05:33:35;9.35;;;5.00;;
74269;SDS011;62754;48.252;11.654;2023-05-18T05:36:03;7.50;;;4.85;;
74269;SDS011;62754;48.252;11.654;2023-05-18T05:38:30;10.60;;;4.68;;
74269;SDS011;62754;48.252;11.654;2023-05-18T05:40:59;9.07;;;4.40;;
74269;SDS011;62754;48.252;11.654;2023-05-18T05:43:25;8.30;;;4.78;;
74269;SDS011;62754;48.252;11.654;2023-05-18T05:45:51;9.23;;;4.95;;
74269;SDS011;62754;48.252;11.654;2023-05-18T05:48:16;8.07;;;5.07;;
74269;SDS011;62754;48.252;11.654;2023-05-18T05:50:42;8.27;;;4.97;;
74269;SDS011;62754;48.252;11.654;2023-05-18T05:53:10;8.40;;;4.65;;
74269;SDS011;62754;48.252;11.654;2023-05-18T05:55:38;8.65;;;4.88;;
74269;SDS011;62754;48.252;11.654;2023-05-18T05:58:06;7.50;;;4.35;;
74269;SDS011;62754;48.252;11.654;2023-05-18T06:00:33;6.40;;;4.28;;
74269;SDS011;62754;48.252;11.654;2023-05-18T06:03:01;8.27;;;4.55;;
74269;SDS011;62754;48.252;11.654;2023-05-18T06:05:27;8.35;;;4.45;;
74269;SDS011;62754;48.252;11.654;2023-05-18T06:07:55;6.55;;;4.40;;
74269;SDS011;62754;48.252;11.654;2023-05-18T06:10:21;7.50;;;4.80;;
74269;SDS011;62754;48.252;11.654;2023-05-18T06:12:47;7.28;;;4.30;;
74269;SDS011;62754;48.252;11.654;2023-05-18T06:15:13;8.40;;;4.78;;
74269;SDS011;62754;48.252;11.654;2023-05-18T06:17:41;8.95;;;4.53;;
74269;SDS011;62754;48.252;11.654;2023-05-18T06:20:10;7.65;;;4.53;;
74269;SDS011;62754;48.252;11.654;2023-05-18T06:22:36;6.30;;;3.92;;
74269;SDS011;62754;48.252;11.654;2023-05-18T06:25:04;8.23;;;4.20;;
74269;SDS011;62754;48.252;11.654;2023-05-18T06:27:32;6.25;;;4.00;;
74269;SDS011;62754;48.252;11.654;2023-05-18T06:30:00;6.80;;;3.80;;
74269;SDS011;62754;48.252;11.654;2023-05-18T06:32:26;7.78;;;3.78;;
74269;SDS011;62754;48.252;11.654;2023-05-18T06:34:52;6.03;;;3.90;;
74269;SDS011;62754;48.252;11.654;2023-05-18T06:37:20;6.05;;;4.25;;
74269;SDS011;62754;48.252;11.654;2023-05-18T06:39:45;6.72;;;4.00;;
74269;SDS011;62754;48.252;11.654;2023-05-18T06:42:11;10.38;;;4.78;;
74269;SDS011;62754;48.252;11.654;2023-05-18T06:44:37;7.45;;;3.92;;
74269;SDS011;62754;48.252;11.654;2023-05-18T06:47:03;9.93;;;4.07;;
74269;SDS011;62754;48.252;11.654;2023-05-18T06:49:29;7.10;;;4.15;;
74269;SDS011;62754;48.252;11.654;2023-05-18T06:51:57;8.82;;;4.38;;
74269;SDS011;62754;48.252;11.654;2023-05-18T06:54:25;5.22;;;4.03;;
74269;SDS011;62754;48.252;11.654;2023-05-18T06:56:55;8.77;;;4.35;;
74269;SDS011;62754;48.252;11.654;2023-05-18T06:59:23;9.07;;;4.05;;
74269;SDS011;62754;48.252;11.654;2023-05-18T07:01:49;7.55;;;3.55;;
74269;SDS011;62754;48.252;11.654;2023-05-18T07:04:18;9.63;;;4.55;;
74269;SDS011;62754;48.252;11.654;2023-05-18T07:06:44;5.30;;;3.67;;
74269;SDS011;62754;48.252;11.654;2023-05-18T07:09:12;7.68;;;3.97;;
74269;SDS011;62754;48.252;11.654;2023-05-18T07:11:40;8.48;;;4.07;;
74269;SDS011;62754;48.252;11.654;2023-05-18T07:14:08;6.07;;;3.95;;
74269;SDS011;62754;48.252;11.654;2023-05-18T07:16:36;8.00;;;4.25;;
74269;SDS011;62754;48.252;11.654;2023-05-18T07:19:02;8.32;;;4.10;;
74269;SDS011;62754;48.252;11.654;2023-05-18T07:21:30;7.65;;;3.92;;
74269;SDS011;62754;48.252;11.654;2023-05-18T07:23:56;7.50;;;3.75;;
74269;SDS011;62754;48.252;11.654;2023-05-18T07:26:21;7.15;;;4.40;;
74269;SDS011;62754;48.252;11.654;2023-05-18T07:28:49;7.88;;;4.20;;
74269;SDS011;62754;48.252;11.654;2023-05-18T07:31:15;5.40;;;3.60;;
74269;SDS011;62754;48.252;11.654;2023-05-18T07:33:41;6.80;;;4.15;;
74269;SDS011;62754;48.252;11.654;2023-05-18T07:36:10;7.45;;;3.85;;
74269;SDS011;62754;48.252;11.654;2023-05-18T07:38:38;7.65;;;4.45;;
74269;SDS011;62754;48.252;11.654;2023-05-18T07:41:06;8.38;;;3.72;;
74269;SDS011;62754;48.252;11.654;2023-05-18T07:43:34;8.18;;;4.13;;
74269;SDS011;62754;48.252;11.654;2023-05-18T07:46:02;9.27;;;4.53;;
74269;SDS011;62754;48.252;11.654;2023-05-18T07:48:28;6.18;;;3.67;;
74269;SDS011;62754;48.252;11.654;2023-05-18T07:50:53;7.22;;;4.35;;
74269;SDS011;62754;48.252;11.654;2023-05-18T07:53:21;7.32;;;3.80;;
74269;SDS011;62754;48.252;11.654;2023-05-18T07:55:47;6.43;;;4.50;;
74269;SDS011;62754;48.252;11.654;2023-05-18T07:58:15;7.90;;;4.32;;
74269;SDS011;62754;48.252;11.654;2023-05-18T08:00:43;9.70;;;3.97;;
74269;SDS011;62754;48.252;11.654;2023-05-18T08:03:11;6.35;;;3.17;;
74269;SDS011;62754;48.252;11.654;2023-05-18T08:05:39;10.63;;;3.63;;
74269;SDS011;62754;48.252;11.654;2023-05-18T08:08:05;6.05;;;3.15;;
74269;SDS011;62754;48.252;11.654;2023-05-18T08:10:34;5.22;;;3.08;;
74269;SDS011;62754;48.252;11.654;2023-05-18T08:13:00;8.38;;;3.60;;
74269;SDS011;62754;48.252;11.654;2023-05-18T08:15:28;6.88;;;3.00;;
74269;SDS011;62754;48.252;11.654;2023-05-18T08:17:56;9.02;;;3.22;;
74269;SDS011;62754;48.252;11.654;2023-05-18T08:20:22;7.97;;;3.40;;
74269;SDS011;62754;48.252;11.654;2023-05-18T08:22:50;8.07;;;3.15;;
74269;SDS011;62754;48.252;11.654;2023-05-18T08:25:18;6.43;;;2.63;;
74269;SDS011;62754;48.252;11.654;2023-05-18T08:27:48;7.43;;;3.30;;
74269;SDS011;62754;48.252;11.654;2023-05-18T08:30:16;10.13;;;2.88;;
74269;SDS011;62754;48.252;11.654;2023-05-18T08:32:44;8.40;;;3.53;;
74269;SDS011;62754;48.252;11.654;2023-05-18T08:35:12;7.78;;;2.72;;
74269;SDS011;62754;48.252;11.654;2023-05-18T08:37:43;13.65;;;6.57;;
74269;SDS011;62754;48.252;11.654;2023-05-18T08:40:09;6.78;;;3.65;;
74269;SDS011;62754;48.252;11.654;2023-05-18T08:45:14;8.02;;;2.78;;
74269;SDS011;62754;48.252;11.654;2023-05-18T08:47:46;9.82;;;2.97;;
74269;SDS011;62754;48.252;11.654;2023-05-18T08:50:17;7.40;;;3.30;;
74269;SDS011;62754;48.252;11.654;2023-05-18T08:52:46;7.18;;;2.70;;
74269;SDS011;62754;48.252;11.654;2023-05-18T08:55:22;6.43;;;2.90;;
74269;SDS011;62754;48.252;11.654;2023-05-18T08:57:49;5.45;;;2.45;;
74269;SDS011;62754;48.252;11.654;2023-05-18T09:00:22;7.60;;;2.92;;
74269;SDS011;62754;48.252;11.654;2023-05-18T09:02:50;8.18;;;3.00;;
74269;SDS011;62754;48.252;11.654;2023-05-18T09:05:18;6.80;;;2.65;;
74269;SDS011;62754;48.252;11.654;2023-05-18T09:07:47;5.32;;;2.75;;
74269;SDS011;62754;48.252;11.654;2023-05-18T09:10:14;8.05;;;2.90;;
74269;SDS011;62754;48.252;11.654;2023-05-18T09:12:43;6.70;;;2.40;;
74269;SDS011;62754;48.252;11.654;2023-05-18T09:15:14;8.40;;;2.90;;
74269;SDS011;62754;48.252;11.654;2023-05-18T09:17:41;7.38;;;2.40;;
74269;SDS011;62754;48.252;11.654;2023-05-18T09:20:11;5.72;;;2.70;;
74269;SDS011;62754;48.252;11.654;2023-05-18T09:22:37;8.05;;;2.70;;
74269;SDS011;62754;48.252;11.654;2023-05-18T09:25:08;7.97;;;2.70;;
74269;SDS011;62754;48.252;11.654;2023-05-18T09:27:35;5.38;;;2.58;;
74269;SDS011;62754;48.252;11.654;2023-05-18T09:30:01;7.35;;;2.90;;
74269;SDS011;62754;48.252;11.654;2023-05-18T09:32:27;6.07;;;2.78;;
74269;SDS011;62754;48.252;11.654;2023-05-18T09:34:53;6.32;;;2.65;;
74269;SDS011;62754;48.252;11.654;2023-05-18T09:37:20;6.32;;;2.80;;
74269;SDS011;62754;48.252;11.654;2023-05-18T09:42:40;5.13;;;2.65;;
74269;SDS011;62754;48.252;11.654;2023-05-18T09:45:18;5.75;;;2.75;;
74269;SDS011;62754;48.252;11.654;2023-05-18T09:47:47;10.00;;;2.78;;
74269;SDS011;62754;48.252;11.654;2023-05-18T09:50:17;8.50;;;2.83;;
74269;SDS011;62754;48.252;11.654;2023-05-18T09:52:47;7.45;;;2.80;;
74269;SDS011;62754;48.252;11.654;2023-05-18T09:55:16;7.30;;;2.83;;
74269;SDS011;62754;48.252;11.654;2023-05-18T09:57:44;6.45;;;2.85;;
74269;SDS011;62754;48.252;11.654;2023-05-18T10:00:11;5.65;;;3.08;;
74269;SDS011;62754;48.252;11.654;2023-05-18T10:02:42;10.55;;;3.80;;
74269;SDS011;62754;48.252;11.654;2023-05-18T10:05:18;9.60;;;2.72;;
74269;SDS011;62754;48.252;11.654;2023-05-18T10:07:54;8.70;;;3.15;;
74269;SDS011;62754;48.252;11.654;2023-05-18T10:10:20;6.90;;;2.75;;
74269;SDS011;62754;48.252;11.654;2023-05-18T10:12:51;5.60;;;3.13;;
74269;SDS011;62754;48.252;11.654;2023-05-18T10:15:20;5.80;;;2.78;;
74269;SDS011;62754;48.252;11.654;2023-05-18T10:17:48;7.10;;;3.08;;
74269;SDS011;62754;48.252;11.654;2023-05-18T10:20:21;8.43;;;2.30;;
74269;SDS011;62754;48.252;11.654;2023-05-18T10:22:48;9.57;;;2.88;;
74269;SDS011;62754;48.252;11.654;2023-05-18T10:25:29;9.07;;;2.80;;
74269;SDS011;62754;48.252;11.654;2023-05-18T10:27:59;7.90;;;2.80;;
74269;SDS011;62754;48.252;11.654;2023-05-18T10:30:31;8.20;;;2.92;;
74269;SDS011;62754;48.252;11.654;2023-05-18T10:33:07;7.47;;;2.75;;
74269;SDS011;62754;48.252;11.654;2023-05-18T10:35:37;6.68;;;2.17;;
74269;SDS011;62754;48.252;11.654;2023-05-18T10:38:03;7.75;;;2.53;;
74269;SDS011;62754;48.252;11.654;2023-05-18T10:40:30;6.05;;;2.38;;
74269;SDS011;62754;48.252;11.654;2023-05-18T10:42:57;5.53;;;1.98;;
74269;SDS011;62754;48.252;11.654;2023-05-18T10:45:30;8.75;;;2.33;;
74269;SDS011;62754;48.252;11.654;2023-05-18T10:47:58;7.18;;;2.63;;
74269;SDS011;62754;48.252;11.654;2023-05-18T10:50:25;7.30;;;2.50;;
74269;SDS011;62754;48.252;11.654;2023-05-18T10:52:52;6.57;;;2.20;;
74269;SDS011;62754;48.252;11.654;2023-05-18T10:55:20;9.20;;;2.35;;
74269;SDS011;62754;48.252;11.654;2023-05-18T10:57:47;4.38;;;1.98;;
74269;SDS011;62754;48.252;11.654;2023-05-18T11:00:20;4.55;;;2.40;;
74269;SDS011;62754;48.252;11.654;2023-05-18T11:02:46;6.55;;;2.60;;
74269;SDS011;62754;48.252;11.654;2023-05-18T11:05:20;5.85;;;2.35;;
74269;SDS011;62754;48.252;11.654;2023-05-18T11:07:48;5.53;;;2.20;;
74269;SDS011;62754;48.252;11.654;2023-05-18T11:10:14;7.43;;;2.70;;
74269;SDS011;62754;48.252;11.654;2023-05-18T11:12:43;7.28;;;2.10;;
74269;SDS011;62754;48.252;11.654;2023-05-18T11:15:09;6.22;;;2.10;;
74269;SDS011;62754;48.252;11.654;2023-05-18T11:17:37;5.70;;;2.10;;
74269;SDS011;62754;48.252;11.654;2023-05-18T11:28:01;7.22;;;2.40;;
74269;SDS011;62754;48.252;11.654;2023-05-18T11:33:15;6.50;;;2.30;;
74269;SDS011;62754;48.252;11.654;2023-05-18T11:49:19;8.05;;;2.22;;
74269;SDS011;62754;48.252;11.654;2023-05-18T11:51:56;5.22;;;2.17;;
74269;SDS011;62754;48.252;11.654;2023-05-18T11:54:23;5.97;;;2.35;;
74269;SDS011;62754;48.252;11.654;2023-05-18T11:56:54;7.70;;;3.17;;
74269;SDS011;62754;48.252;11.654;2023-05-18T11:59:29;7.63;;;3.00;;
74269;SDS011;62754;48.252;11.654;2023-05-18T12:02:01;6.40;;;3.05;;
74269;SDS011;62754;48.252;11.654;2023-05-18T12:04:27;6.28;;;2.58;;
74269;SDS011;62754;48.252;11.654;2023-05-18T12:06:56;4.55;;;2.30;;
74269;SDS011;62754;48.252;11.654;2023-05-18T12:09:24;7.05;;;2.22;;
74269;SDS011;62754;48.252;11.654;2023-05-18T12:12:09;4.88;;;2.00;;
74269;SDS011;62754;48.252;11.654;2023-05-18T12:14:43;6.63;;;2.22;;
74269;SDS011;62754;48.252;11.654;2023-05-18T12:17:17;4.82;;;1.92;;
74269;SDS011;62754;48.252;11.654;2023-05-18T12:19:46;5.47;;;2.30;;
74269;SDS011;62754;48.252;11.654;2023-05-18T12:22:13;7.57;;;2.53;;
74269;SDS011;62754;48.252;11.654;2023-05-18T12:24:39;4.22;;;1.63;;
74269;SDS011;62754;48.252;11.654;2023-05-18T12:27:11;6.25;;;2.10;;
74269;SDS011;62754;48.252;11.654;2023-05-18T12:29:40;5.38;;;2.10;;
74269;SDS011;62754;48.252;11.654;2023-05-18T12:34:36;6.40;;;2.20;;
74269;SDS011;62754;48.252;11.654;2023-05-18T12:37:02;5.90;;;2.63;;
74269;SDS011;62754;48.252;11.654;2023-05-18T12:39:29;7.32;;;2.15;;
74269;SDS011;62754;48.252;11.654;2023-05-18T12:42:06;4.20;;;1.73;;
74269;SDS011;62754;48.252;11.654;2023-05-18T12:44:36;5.78;;;2.05;;
74269;SDS011;62754;48.252;11.654;2023-05-18T12:49:34;5.47;;;2.28;;
74269;SDS011;62754;48.252;11.654;2023-05-18T12:52:06;4.80;;;2.15;;
74269;SDS011;62754;48.252;11.654;2023-05-18T12:54:35;6.07;;;1.95;;
74269;SDS011;62754;48.252;11.654;2023-05-18T12:57:15;7.38;;;2.42;;
74269;SDS011;62754;48.252;11.654;2023-05-18T12:59:46;7.00;;;1.80;;
74269;SDS011;62754;48.252;11.654;2023-05-18T13:05:06;6.63;;;2.53;;
74269;SDS011;62754;48.252;11.654;2023-05-18T13:07:40;8.98;;;3.90;;
74269;SDS011;62754;48.252;11.654;2023-05-18T13:10:08;9.75;;;3.33;;
74269;SDS011;62754;48.252;11.654;2023-05-18T13:15:21;6.25;;;2.65;;
74269;SDS011;62754;48.252;11.654;2023-05-18T13:23:25;5.95;;;2.00;;
74269;SDS011;62754;48.252;11.654;2023-05-18T13:25:54;3.72;;;1.48;;
74269;SDS011;62754;48.252;11.654;2023-05-18T13:30:46;3.28;;;1.58;;
74269;SDS011;62754;48.252;11.654;2023-05-18T13:33:15;5.55;;;1.95;;
74269;SDS011;62754;48.252;11.654;2023-05-18T13:35:43;3.88;;;1.95;;
74269;SDS011;62754;48.252;11.654;2023-05-18T13:38:12;4.63;;;1.55;;
74269;SDS011;62754;48.252;11.654;2023-05-18T13:40:41;4.75;;;1.98;;
74269;SDS011;62754;48.252;11.654;2023-05-18T13:43:09;6.38;;;1.92;;
74269;SDS011;62754;48.252;11.654;2023-05-18T13:45:35;6.07;;;2.13;;
74269;SDS011;62754;48.252;11.654;2023-05-18T13:48:01;6.68;;;2.30;;
74269;SDS011;62754;48.252;11.654;2023-05-18T13:50:29;6.57;;;2.20;;
74269;SDS011;62754;48.252;11.654;2023-05-18T13:52:55;6.38;;;2.17;;
74269;SDS011;62754;48.252;11.654;2023-05-18T13:55:24;5.90;;;2.22;;
74269;SDS011;62754;48.252;11.654;2023-05-18T13:57:55;6.38;;;2.08;;
74269;SDS011;62754;48.252;11.654;2023-05-18T14:00:26;6.95;;;2.47;;
74269;SDS011;62754;48.252;11.654;2023-05-18T14:02:54;4.65;;;2.30;;
74269;SDS011;62754;48.252;11.654;2023-05-18T14:05:20;5.32;;;2.45;;
74269;SDS011;62754;48.252;11.654;2023-05-18T14:07:48;8.45;;;2.50;;
74269;SDS011;62754;48.252;11.654;2023-05-18T14:10:14;6.43;;;2.58;;
74269;SDS011;62754;48.252;11.654;2023-05-18T14:12:40;5.88;;;2.50;;
74269;SDS011;62754;48.252;11.654;2023-05-18T14:15:05;5.95;;;2.00;;
74269;SDS011;62754;48.252;11.654;2023-05-18T14:17:32;5.07;;;1.77;;
74269;SDS011;62754;48.252;11.654;2023-05-18T14:20:01;4.53;;;2.28;;
74269;SDS011;62754;48.252;11.654;2023-05-18T14:22:31;4.38;;;1.88;;
74269;SDS011;62754;48.252;11.654;2023-05-18T14:24:59;5.20;;;2.05;;
74269;SDS011;62754;48.252;11.654;2023-05-18T14:27:26;5.53;;;1.67;;
74269;SDS011;62754;48.252;11.654;2023-05-18T14:29:56;5.63;;;2.05;;
74269;SDS011;62754;48.252;11.654;2023-05-18T14:32:22;5.00;;;2.03;;
74269;SDS011;62754;48.252;11.654;2023-05-18T14:34:50;5.38;;;1.95;;
74269;SDS011;62754;48.252;11.654;2023-05-18T14:37:16;3.67;;;1.70;;
74269;SDS011;62754;48.252;11.654;2023-05-18T14:39:44;5.22;;;1.88;;
74269;SDS011;62754;48.252;11.654;2023-05-18T14:42:10;5.25;;;1.65;;
74269;SDS011;62754;48.252;11.654;2023-05-18T14:44:38;5.32;;;2.00;;
74269;SDS011;62754;48.252;11.654;2023-05-18T14:47:04;4.80;;;2.10;;
74269;SDS011;62754;48.252;11.654;2023-05-18T14:49:34;5.80;;;2.00;;
74269;SDS011;62754;48.252;11.654;2023-05-18T14:52:02;7.15;;;2.38;;
74269;SDS011;62754;48.252;11.654;2023-05-18T14:54:28;5.30;;;2.03;;
74269;SDS011;62754;48.252;11.654;2023-05-18T14:56:54;4.80;;;2.10;;
74269;SDS011;62754;48.252;11.654;2023-05-18T14:59:21;6.47;;;2.33;;
74269;SDS011;62754;48.252;11.654;2023-05-18T15:01:47;8.35;;;2.20;;
74269;SDS011;62754;48.252;11.654;2023-05-18T15:04:15;6.10;;;1.98;;
74269;SDS011;62754;48.252;11.654;2023-05-18T15:06:41;5.68;;;2.17;;
74269;SDS011;62754;48.252;11.654;2023-05-18T15:09:10;5.18;;;1.90;;
74269;SDS011;62754;48.252;11.654;2023-05-18T15:11:37;5.03;;;2.00;;
74269;SDS011;62754;48.252;11.654;2023-05-18T15:14:03;4.38;;;2.00;;
74269;SDS011;62754;48.252;11.654;2023-05-18T15:16:29;3.63;;;1.70;;
74269;SDS011;62754;48.252;11.654;2023-05-18T15:18:55;5.03;;;1.75;;
74269;SDS011;62754;48.252;11.654;2023-05-18T15:21:21;2.75;;;1.33;;
74269;SDS011;62754;48.252;11.654;2023-05-18T15:23:49;4.05;;;1.63;;
74269;SDS011;62754;48.252;11.654;2023-05-18T15:26:14;4.80;;;1.80;;
74269;SDS011;62754;48.252;11.654;2023-05-18T15:28:48;5.55;;;1.90;;
74269;SDS011;62754;48.252;11.654;2023-05-18T15:31:18;4.07;;;1.73;;
74269;SDS011;62754;48.252;11.654;2023-05-18T15:33:44;4.70;;;1.95;;
74269;SDS011;62754;48.252;11.654;2023-05-18T15:36:09;7.85;;;2.08;;